• Join FlightAware (Why Join?)
  • Login
  • US Flag 
01:57AM EDT


 

Airport Tracker/Info


-or-


 

Live Flight TrackerFlight Track Log ✈ WAV260 ✈ 01-Jul-2013 ✈ PAFA / FAI - PFYU

Flight Track Log - Related Links

Times and Time Zones

All times are in EDT time to prevent confusion due to time zone crossing. See the WAV260 flight status page for this flight to view local times or setup timezone preferences in your user account.

Time Position Orientation Groundspeed Altitude Reporting Facility
EDT Latitude Longitude Course Direction KTS MPH feet Rate Location/Type
09:46PM 64.9000 -147.6333 31° Northeast 140 161 3,600  Level Anchorage Center
09:47PM 64.9333 -147.5667 40° Northeast 130 150 4,400 600 Climbing Anchorage Center
09:48PM 64.9667 -147.5333 23° Northeast 140 161 4,900 600 Climbing Anchorage Center
09:49PM 65.0302 -147.5465 32° Northeast  Level FlightAware Approximate
09:49PM 65.0000 -147.5000 23° Northeast 140 161 5,700  Level Anchorage Center
09:50PM 65.0668 -147.4887 35° Northeast  Level FlightAware Approximate
09:50PM 65.0333 -147.4500 32° Northeast 140 161 6,000  Level Anchorage Center
09:51PM 65.1029 -147.4292 31° Northeast  Level FlightAware Approximate
09:51PM 65.0667 -147.4000 32° Northeast 140 161 6,500  Level Anchorage Center
09:52PM 65.1000 -147.3500 32° Northeast 150 173 7,100 540 Climbing Anchorage Center
09:53PM 65.1333 -147.3000 32° Northeast 150 173 7,600 480 Climbing Anchorage Center
09:54PM 65.1667 -147.2500 32° Northeast 150 173 8,100 180 Climbing Anchorage Center
09:55PM 65.2167 -147.2000 23° Northeast 170 196 8,000 -60 Descending Anchorage Center
09:56PM 65.2500 -147.1333 40° Northeast 180 207 8,000  Level Anchorage Center
09:57PM 65.3000 -147.0833 23° Northeast 170 196 8,000  Level Anchorage Center
09:59PM 65.3833 -146.9667 30° Northeast 190 219 8,000  Level Anchorage Center
10:00PM 65.4333 -146.9000 29° Northeast 170 196 8,000  Level Anchorage Center
10:01PM 65.4667 -146.8333 40° Northeast 200 230 8,000  Level Anchorage Center
10:02PM 65.5167 -146.7833 23° Northeast 180 207 8,000 -120 Level Anchorage Center
10:03PM 65.5667 -146.7167 29° Northeast 190 219 7,800 -360 Descending Anchorage Center
10:04PM 65.6000 -146.6500 40° Northeast 190 219 7,300 -300 Descending Anchorage Center
10:05PM 65.6500 -146.5833 29° Northeast 190 219 7,200  Descending Anchorage Center
10:06PM 65.7000 -146.5167 29° Northeast 190 219 7,300  Climbing Anchorage Center
10:07PM 65.7500 -146.4667 22° Northeast 190 219 7,300 -60 Level Anchorage Center
10:08PM 65.7833 -146.4167 32° Northeast 180 207 7,200  Descending Anchorage Center
10:09PM 65.8333 -146.3333 34° Northeast 200 230 7,300  Climbing Anchorage Center
10:10PM 65.8667 -146.2833 32° Northeast 180 207 7,300 -300 Level Anchorage Center
10:11PM 65.9167 -146.2167 29° Northeast 200 230 6,800 -360 Descending Anchorage Center
10:12PM 65.9667 -146.1500 28° Northeast 190 219 6,600 -300 Descending Anchorage Center
10:13PM 66.0000 -146.0833 39° Northeast 180 207 6,200 -420 Descending Anchorage Center
10:16PM 66.0557 -146.0185 25° Northeast  Level FlightAware Approximate
10:23PM 66.3206 -145.6272 32° Northeast  Level FlightAware Approximate
10:24PM 66.3578 -145.5687 32° Northeast  Level FlightAware Approximate
10:25PM 66.3950 -145.5101 32° Northeast  Level FlightAware Approximate
10:26PM 66.4321 -145.4512 32° Northeast  Level FlightAware Approximate
10:27PM 66.4693 -145.3922 32° Northeast  Level FlightAware Approximate
10:28PM 66.5064 -145.3331 32° Northeast  Level FlightAware Approximate
10:29PM 66.5432 -145.2725 34° Northeast  Level FlightAware Approximate
10:30PM 66.5667 -145.2333 34° Northeast  Level FlightAware Approximate
10:31PM 66.5724 -145.2463 34° Northeast  Level Estimated
10:32PM 66.5724 -145.2463 34° Northeast  Level Estimated
10:33PM 66.5724 -145.2463 34° Northeast  Level Estimated
10:34PM 66.5724 -145.2463 34° Northeast  Level Estimated
10:35PM 66.5724 -145.2463 34° Northeast  Level Estimated
10:36PM 66.5724 -145.2463 34° Northeast  Level Estimated
10:37PM 66.5724 -145.2463 34° Northeast  Level Estimated
10:38PM 66.5724 -145.2463 34° Northeast  Level Estimated
10:39PM 66.5724 -145.2463 34° Northeast  Level Estimated
10:40PM 66.5724 -145.2463 34° Northeast  Level Estimated
10:41PM 66.5724 -145.2463 34° Northeast  Level Estimated
10:42PM 66.5724 -145.2463 34° Northeast  Level Estimated
10:43PM 66.5724 -145.2463 34° Northeast  Level Estimated
10:44PM 66.5724 -145.2463 34° Northeast  Level Estimated